Time;durP1;ratioP1;P1;durP2;ratioP2;P2;SDS_P1;SDS_P2;PMS_P1;PMS_P2;Temp;Humidity;BMP_temperature;BMP_pressure;BME280_temperature;BME280_humidity;BME280_pressure;Samples;Min_cycle;Max_cycle;Signal;HPM_P1;HPM_P2
2022/12/08 00:02:10;;;;;;;4.43;4.13;;;;;;;3.14;100.00;100803.50;6068134;23;20025;-73
2022/12/08 00:09:20;;;;;;;8.25;5.03;;;;;;;2.51;100.00;100688.09;6053260;23;20056;-76
2022/12/08 00:10:08;;;;;;;4.22;3.90;;;;;;;2.48;100.00;100677.78;6084291;23;20200;-73
2022/12/08 00:12:55;;;;;;;8.63;4.70;;;;;;;2.71;100.00;100713.63;6041307;23;20457;-74
2022/12/08 00:15:21;;;;;;;3.85;3.65;;;;;;;2.99;100.00;100770.13;6054813;23;20029;-74
2022/12/08 00:17:47;;;;;;;4.80;4.50;;;;;;;2.62;100.00;100711.19;6073359;23;20634;-74
2022/12/08 00:20:14;;;;;;;3.88;3.67;;;;;;;2.65;100.00;100707.72;6055139;23;20018;-74
2022/12/08 00:22:40;;;;;;;7.25;5.78;;;;;;;2.36;100.00;100659.91;6069602;23;20026;-74
2022/12/08 00:25:07;;;;;;;4.82;4.35;;;;;;;2.68;100.00;100715.41;6048149;23;20077;-75
2022/12/08 00:27:33;;;;;;;5.53;4.75;;;;;;;3.06;100.00;100765.66;6072399;23;20023;-74
2022/12/08 00:29:59;;;;;;;5.60;5.10;;;;;;;2.42;100.00;100672.72;6080936;23;20002;-75
2022/12/08 00:32:26;;;;;;;4.93;4.43;;;;;;;2.70;100.00;100721.41;6060337;23;20029;-75
2022/12/08 00:34:52;;;;;;;4.93;4.63;;;;;;;2.55;100.00;100688.91;6083120;23;20047;-73
2022/12/08 00:37:19;;;;;;;4.10;3.90;;;;;;;2.41;100.00;100676.22;6070421;23;20010;-73
2022/12/08 00:39:45;;;;;;;4.45;4.15;;;;;;;2.71;100.00;100733.50;6083227;23;20459;-73
2022/12/08 00:42:11;;;;;;;6.88;5.43;;;;;;;1.71;100.00;100561.88;6033005;23;20034;-74
2022/12/08 00:44:43;;;;;;;3.85;3.67;;;;;;;2.91;100.00;100761.63;6085081;23;20041;-74
2022/12/08 00:47:10;;;;;;;5.25;4.85;;;;;;;2.87;100.00;100760.00;6071006;23;20042;-74
2022/12/08 00:49:37;;;;;;;4.30;4.00;;;;;;;2.72;100.00;100738.63;6083349;23;20022;-74
2022/12/08 00:52:04;;;;;;;7.22;6.03;;;;;;;2.80;100.00;100754.06;6042576;23;20026;-74
2022/12/08 00:54:30;;;;;;;6.28;5.40;;;;;;;2.57;100.00;100711.31;6084920;23;20614;-74
2022/12/08 00:56:57;;;;;;;6.88;6.13;;;;;;;2.85;100.00;100748.78;6033389;23;20031;-74
2022/12/08 00:59:23;;;;;;;3.92;3.72;;;;;;;2.57;100.00;100700.09;6057854;23;20030;-74
2022/12/08 01:01:49;;;;;;;7.38;4.40;;;;;;;2.64;100.00;100701.66;6067457;23;20190;-74
2022/12/08 01:04:18;;;;;;;4.57;4.28;;;;;;;2.93;100.00;100744.31;6044930;23;20018;-75
2022/12/08 01:06:44;;;;;;;4.85;4.55;;;;;;;2.68;100.00;100705.91;6064599;23;20460;-77
2022/12/08 01:09:13;;;;;;;7.18;4.78;;;;;;;2.90;100.00;100744.34;6085499;23;20035;-76
2022/12/08 01:11:39;;;;;;;9.25;5.07;;;;;;;2.87;100.00;100742.69;6079004;23;20033;-76
2022/12/08 01:14:06;;;;;;;4.93;4.38;;;;;;;2.70;100.00;100722.28;6079703;23;20038;-75
2022/12/08 01:16:34;;;;;;;4.55;4.25;;;;;;;2.24;100.00;100640.25;6063559;23;20041;-75
2022/12/08 01:19:01;;;;;;;4.18;3.90;;;;;;;2.17;100.00;100628.34;6086067;23;20022;-76
2022/12/08 01:21:28;;;;;;;4.95;4.65;;;;;;;2.88;100.00;100749.56;6046040;23;20021;-76
2022/12/08 01:23:55;;;;;;;5.05;4.70;;;;;;;2.42;100.00;100674.47;6082722;23;20033;-75
2022/12/08 01:26:21;;;;;;;6.72;6.00;;;;;;;2.92;100.00;100758.16;6061964;23;20038;-76
2022/12/08 01:28:47;;;;;;;4.80;4.43;;;;;;;2.52;100.00;100681.19;6040702;23;20019;-76
2022/12/08 01:31:19;;;;;;;5.63;5.18;;;;;;;2.94;100.00;100748.59;6066047;23;20030;-76
2022/12/08 01:33:46;;;;;;;11.68;5.63;;;;;;;2.89;100.00;100727.13;6036912;23;20075;-76
2022/12/08 01:36:25;;;;;;;4.95;4.55;;;;;;;3.00;100.00;100751.06;6080550;23;20025;-75
2022/12/08 01:38:52;;;;;;;3.97;3.78;;;;;;;2.68;100.00;100681.72;6072082;23;20014;-76
2022/12/08 01:41:23;;;;;;;8.00;5.82;;;;;;;3.12;100.00;100757.75;6056512;23;20026;-74
2022/12/08 01:43:55;;;;;;;5.68;5.20;;;;;;;3.13;100.00;100746.50;6063054;23;20259;-74
2022/12/08 01:46:23;;;;;;;5.07;4.38;;;;;;;3.00;100.00;100720.81;6059369;23;20034;-74
2022/12/08 01:49:10;;;;;;;5.70;5.00;;;;;;;2.06;100.00;100576.75;6074115;23;20025;-75
2022/12/08 01:52:06;;;;;;;5.10;4.70;;;;;;;3.23;100.00;100731.56;6088291;23;20488;-74
2022/12/08 01:54:38;;;;;;;5.03;4.72;;;;;;;2.77;100.00;100661.69;6038957;23;20030;-75
2022/12/08 01:57:09;;;;;;;5.88;5.35;;;;;;;3.08;100.00;100699.91;6087998;23;20022;-74
2022/12/08 01:59:42;;;;;;;5.47;5.07;;;;;;;3.09;100.00;100693.84;6067363;23;20036;-74
2022/12/08 02:02:10;;;;;;;4.90;4.60;;;;;;;3.34;100.00;100746.03;6085407;23;20209;-74
2022/12/08 02:04:37;;;;;;;6.00;5.40;;;;;;;3.38;100.00;100733.84;6065260;23;20032;-75
2022/12/08 02:07:05;;;;;;;7.30;6.60;;;;;;;3.34;100.00;100730.47;6084213;23;20034;-74
2022/12/08 02:09:35;;;;;;;7.32;4.50;;;;;;;3.17;100.00;100686.75;6060374;23;20025;-74
2022/12/08 02:12:01;;;;;;;6.97;5.15;;;;;;;3.43;100.00;100723.38;6084995;23;20030;-75
2022/12/08 02:14:28;;;;;;;5.78;4.55;;;;;;;3.14;100.00;100670.41;6052462;23;20292;-74
2022/12/08 02:17:33;;;;;;;4.90;4.50;;;;;;;3.42;100.00;100730.31;6090366;23;20018;-74
2022/12/08 02:20:18;;;;;;;4.68;4.30;;;;;;;3.43;100.00;100719.06;6043041;23;20075;-75
2022/12/08 02:22:58;;;;;;;3.75;3.55;;;;;;;2.94;100.00;100658.72;6085670;23;20488;-74
2022/12/08 02:25:54;;;;;;;4.88;4.43;;;;;;;3.43;100.00;100721.66;6039790;23;20500;-74
2022/12/08 02:28:29;;;;;;;7.13;4.70;;;;;;;3.39;100.00;100717.41;6082845;23;20380;-74
2022/12/08 02:31:23;;;;;;;4.32;4.07;;;;;;;3.45;100.00;100714.69;6051935;23;20025;-76
2022/12/08 02:34:13;;;;;;;5.18;4.75;;;;;;;3.45;100.00;100706.91;6057651;23;20347;-74
2022/12/08 02:36:52;;;;;;;5.90;4.70;;;;;;;3.44;100.00;100715.56;6064405;23;20030;-75
2022/12/08 02:39:35;;;;;;;4.93;4.63;;;;;;;3.45;100.00;100709.50;6061269;23;20026;-75
2022/12/08 02:42:31;;;;;;;5.22;4.82;;;;;;;3.43;100.00;100702.59;6074437;23;20090;-76
2022/12/08 02:45:07;;;;;;;4.88;4.57;;;;;;;3.46;100.00;100718.13;6082511;23;20463;-74
2022/12/08 02:47:34;;;;;;;4.22;3.90;;;;;;;3.13;100.00;100654.00;6072146;23;20094;-74
2022/12/08 02:50:00;;;;;;;4.75;4.38;;;;;;;3.50;100.00;100697.25;6053169;23;20047;-73
2022/12/08 02:52:28;;;;;;;7.20;4.00;;;;;;;3.51;100.00;100695.53;6075845;23;20187;-76
2022/12/08 02:54:57;;;;;;;6.93;4.72;;;;;;;3.26;100.00;100658.91;6084857;23;20021;-73
2022/12/08 02:57:30;;;;;;;4.03;3.80;;;;;;;3.48;100.00;100687.81;6013321;23;20029;-73
2022/12/08 03:00:10;;;;;;;5.80;4.50;;;;;;;3.48;100.00;100688.66;6079792;23;20010;-74
2022/12/08 03:03:00;;;;;;;5.60;4.85;;;;;;;2.36;100.00;100504.50;6066990;23;20050;-74
2022/12/08 03:05:34;;;;;;;4.40;4.20;;;;;;;3.50;100.00;100688.63;6085490;23;20132;-75
2022/12/08 03:08:11;;;;;;;4.63;3.88;;;;;;;3.48;100.00;100690.41;6022867;23;20194;-73
2022/12/08 03:10:45;;;;;;;4.47;4.07;;;;;;;3.39;100.00;100687.13;6086057;23;20029;-74
2022/12/08 03:13:19;;;;;;;4.82;4.43;;;;;;;3.26;100.00;100670.13;6053129;23;20025;-75
2022/12/08 03:15:49;;;;;;;3.90;3.60;;;;;;;3.07;100.00;100630.81;6071005;23;20075;-74
2022/12/08 03:18:18;;;;;;;5.78;5.38;;;;;;;3.36;100.00;100673.38;6055219;23;20033;-75
2022/12/08 03:20:47;;;;;;;4.68;4.35;;;;;;;3.28;100.00;100657.97;6083426;23;20079;-75
2022/12/08 03:23:16;;;;;;;4.90;4.50;;;;;;;2.72;100.00;100562.44;6067756;23;20496;-74
2022/12/08 03:25:55;;;;;;;4.35;4.07;;;;;;;3.30;100.00;100656.19;6056310;23;20020;-75
2022/12/08 03:28:21;;;;;;;4.45;4.20;;;;;;;3.43;100.00;100667.16;6067273;23;20014;-75
2022/12/08 03:30:54;;;;;;;4.63;4.32;;;;;;;3.39;100.00;100674.16;6079381;23;20026;-74
2022/12/08 03:33:23;;;;;;;;;;;;;;;3.41;100.00;100676.72;6060071;23;21613;-74
2022/12/08 03:35:51;;;;;;;3.47;3.35;;;;;;;3.22;100.00;100629.59;6081471;23;20440;-76
2022/12/08 03:38:18;;;;;;;4.07;3.88;;;;;;;3.24;100.00;100637.34;6047225;23;20033;-73
2022/12/08 03:41:17;;;;;;;4.72;4.10;;;;;;;3.29;100.00;100640.69;6084545;23;20515;-75
2022/12/08 03:43:31;;;;;;;4.20;3.88;;;;;;;3.37;100.00;100656.94;6064197;23;20026;-75
2022/12/08 03:45:57;;;;;;;4.60;4.20;;;;;;;2.42;100.00;100499.19;6086144;23;20040;-75
2022/12/08 03:48:24;;;;;;;4.00;3.80;;;;;;;3.32;100.00;100643.22;6084871;23;20027;-75
2022/12/08 03:50:50;;;;;;;4.53;4.00;;;;;;;3.06;100.00;100600.56;6031407;23;20055;-76
2022/12/08 03:53:17;;;;;;;5.13;4.55;;;;;;;2.91;100.00;100577.59;6071298;23;20022;-75
2022/12/08 03:55:43;;;;;;;4.18;3.95;;;;;;;3.12;100.00;100600.41;6045727;23;20019;-75
2022/12/08 03:58:09;;;;;;;4.13;3.92;;;;;;;3.40;100.00;100644.72;6087091;23;20010;-73
2022/12/08 04:00:36;;;;;;;5.15;4.57;;;;;;;3.18;100.00;100620.19;6040190;23;20023;-75
2022/12/08 04:03:03;;;;;;;3.72;3.45;;;;;;;2.83;100.00;100566.53;6081069;23;20033;-76
2022/12/08 04:05:30;;;;;;;4.45;4.20;;;;;;;3.46;100.00;100659.28;6066068;23;20010;-74
2022/12/08 04:07:59;;;;;;;3.72;3.53;;;;;;;3.42;100.00;100665.44;6048798;23;20026;-74
2022/12/08 04:10:26;;;;;;;6.10;4.78;;;;;;;3.03;100.00;100584.22;6080474;23;20032;-74
2022/12/08 04:12:52;;;;;;;4.00;3.70;;;;;;;2.99;100.00;100599.03;6056909;23;20033;-75
2022/12/08 04:15:19;;;;;;;4.68;4.32;;;;;;;3.42;100.00;100636.91;6083644;23;20022;-75
2022/12/08 04:17:45;;;;;;;4.57;4.28;;;;;;;3.40;100.00;100636.94;6042512;23;20038;-74
2022/12/08 04:20:12;;;;;;;4.53;4.22;;;;;;;2.37;100.00;100464.81;6064381;23;20018;-73
2022/12/08 04:22:38;;;;;;;4.63;4.32;;;;;;;3.19;100.00;100594.22;6058325;23;20005;-73
2022/12/08 04:25:05;;;;;;;4.60;4.28;;;;;;;3.19;100.00;100594.22;6084170;23;20030;-74
2022/12/08 04:27:32;;;;;;;4.10;3.90;;;;;;;3.43;100.00;100636.03;6074284;23;20018;-73
2022/12/08 04:29:58;;;;;;;5.20;4.85;;;;;;;3.19;100.00;100590.78;6083576;23;20020;-73
2022/12/08 04:32:25;;;;;;;4.75;4.28;;;;;;;3.28;100.00;100593.13;6074812;23;20038;-74
2022/12/08 04:34:51;;;;;;;3.55;3.35;;;;;;;2.98;100.00;100550.63;6079371;23;20037;-73
2022/12/08 04:37:17;;;;;;;4.22;4.03;;;;;;;3.45;100.00;100625.59;6065765;23;20037;-74
2022/12/08 04:39:44;;;;;;;5.13;4.75;;;;;;;2.49;100.00;100448.13;6084755;23;20441;-74
2022/12/08 04:42:10;;;;;;;6.13;5.63;;;;;;;3.16;100.00;100576.13;6067281;23;20030;-74
2022/12/08 04:44:36;;;;;;;5.28;4.55;;;;;;;3.43;100.00;100628.25;6061273;23;20532;-73
2022/12/08 04:47:03;;;;;;;5.15;4.75;;;;;;;3.33;100.00;100609.47;6056466;23;20026;-75
2022/12/08 04:49:29;;;;;;;4.50;3.97;;;;;;;3.35;100.00;100607.69;6079526;23;20454;-74
2022/12/08 04:51:56;;;;;;;5.13;4.47;;;;;;;3.14;100.00;100577.06;6065065;23;20090;-74
2022/12/08 04:54:22;;;;;;;4.70;4.40;;;;;;;3.32;100.00;100601.72;6080465;23;20598;-76
2022/12/08 04:56:48;;;;;;;4.53;4.15;;;;;;;2.26;100.00;100431.34;6078571;23;20014;-75
2022/12/08 04:59:15;;;;;;;4.25;3.85;;;;;;;3.22;100.00;100585.50;6016202;23;20039;-76
2022/12/08 05:01:41;;;;;;;5.35;5.05;;;;;;;3.10;100.00;100571.09;6054680;23;20015;-76
2022/12/08 05:04:08;;;;;;;4.70;4.40;;;;;;;3.44;100.00;100618.72;6076256;23;20487;-73
2022/12/08 05:06:34;;;;;;;3.80;3.58;;;;;;;3.43;100.00;100611.81;6079173;23;20418;-74
2022/12/08 05:09:00;;;;;;;4.15;3.95;;;;;;;2.51;100.00;100461.91;6051174;23;20030;-74
2022/12/08 05:11:27;;;;;;;6.25;5.03;;;;;;;3.46;100.00;100619.53;6043656;23;20483;-77
2022/12/08 05:13:53;;;;;;;5.13;4.82;;;;;;;3.18;100.00;100574.34;6065842;23;20032;-74
2022/12/08 05:16:20;;;;;;;6.15;4.78;;;;;;;3.25;100.00;100597.53;6077044;23;20494;-74
2022/12/08 05:18:46;;;;;;;16.90;5.75;;;;;;;3.26;100.00;100588.88;6085268;23;20461;-74
2022/12/08 05:21:13;;;;;;;4.88;4.57;;;;;;;3.36;100.00;100613.72;6067115;23;20034;-74
2022/12/08 05:23:39;;;;;;;4.95;4.70;;;;;;;2.83;100.00;100512.97;6055358;23;20026;-76
2022/12/08 05:26:06;;;;;;;6.55;6.15;;;;;;;3.47;100.00;100610.84;6075756;23;20022;-74
2022/12/08 05:28:32;;;;;;;6.43;4.85;;;;;;;3.42;100.00;100604.94;6044811;23;20022;-75
2022/12/08 05:31:12;;;;;;;6.07;5.47;;;;;;;3.36;100.00;100600.75;6083546;23;20366;-74
2022/12/08 05:33:39;;;;;;;10.30;6.63;;;;;;;3.26;100.00;100581.94;6042108;23;20022;-75
2022/12/08 05:36:07;;;;;;;7.57;5.25;;;;;;;3.42;100.00;100603.19;6085008;23;20022;-74
2022/12/08 05:38:34;;;;;;;5.75;5.30;;;;;;;3.30;100.00;100580.16;6073211;23;20185;-75
2022/12/08 05:41:00;;;;;;;5.32;4.85;;;;;;;3.03;100.00;100545.34;6083969;23;20041;-75
2022/12/08 05:43:26;;;;;;;7.25;6.25;;;;;;;2.97;100.00;100535.97;6042568;23;20117;-74
2022/12/08 05:45:53;;;;;;;4.72;4.43;;;;;;;2.95;100.00;100520.47;6073817;23;20096;-75
2022/12/08 05:48:20;;;;;;;8.95;6.05;;;;;;;3.40;100.00;100594.59;6064436;23;20044;-75
2022/12/08 05:50:47;;;;;;;4.78;4.47;;;;;;;3.39;100.00;100608.47;6050858;23;20564;-77
2022/12/08 05:53:17;;;;;;;6.20;4.43;;;;;;;3.23;100.00;100566.47;6066414;23;20050;-74
2022/12/08 05:55:45;;;;;;;6.20;5.72;;;;;;;3.44;100.00;100583.25;6083680;23;20080;-75
2022/12/08 05:58:17;;;;;;;9.85;5.38;;;;;;;2.55;100.00;100448.00;6049975;23;20077;-74
2022/12/08 06:00:45;;;;;;;6.03;5.53;;;;;;;3.37;100.00;100581.72;6062513;23;20010;-73
2022/12/08 06:03:13;;;;;;;4.55;4.25;;;;;;;3.18;100.00;100557.94;6073473;23;20287;-75
2022/12/08 06:05:41;;;;;;;6.85;6.22;;;;;;;3.35;100.00;100573.97;6085742;23;20053;-75
2022/12/08 06:08:08;;;;;;;6.18;5.57;;;;;;;2.66;100.00;100451.16;6077949;23;20090;-76
2022/12/08 06:10:38;;;;;;;6.18;5.70;;;;;;;2.76;100.00;100473.38;6086000;23;20472;-74
2022/12/08 06:13:04;;;;;;;5.32;4.82;;;;;;;3.09;100.00;100519.28;6049958;23;20300;-75
2022/12/08 06:15:33;;;;;;;6.82;5.20;;;;;;;2.88;100.00;100492.13;6082150;23;20038;-73
2022/12/08 06:17:59;;;;;;;4.80;4.10;;;;;;;3.20;100.00;100544.03;6070817;23;20111;-75
2022/12/08 06:20:26;;;;;;;4.85;4.55;;;;;;;3.27;100.00;100564.63;6045529;23;20023;-76
2022/12/08 06:22:53;;;;;;;5.82;5.30;;;;;;;3.15;100.00;100542.47;6058639;23;20022;-73
2022/12/08 06:25:21;;;;;;;8.00;5.63;;;;;;;3.04;100.00;100550.50;6078631;23;20014;-76
2022/12/08 06:27:47;;;;;;;6.07;5.72;;;;;;;2.53;100.00;100463.56;6089147;23;20078;-76
2022/12/08 06:30:14;;;;;;;13.82;6.18;;;;;;;2.83;100.00;100501.75;6060232;23;20017;-76
2022/12/08 06:32:41;;;;;;;3.97;3.75;;;;;;;3.25;100.00;100576.78;6062406;23;20077;-75
2022/12/08 06:35:08;;;;;;;4.88;4.57;;;;;;;2.70;100.00;100499.44;6073942;23;20024;-74
2022/12/08 06:37:35;;;;;;;5.75;5.30;;;;;;;2.76;100.00;100507.06;6086998;23;20093;-75
2022/12/08 06:40:01;;;;;;;5.00;4.63;;;;;;;2.71;100.00;100501.16;6068595;23;20022;-74
2022/12/08 06:42:43;;;;;;;7.82;4.65;;;;;;;3.06;100.00;100545.28;6053862;23;20030;-76
2022/12/08 06:45:12;;;;;;;4.93;4.53;;;;;;;1.99;100.00;100374.16;6050397;23;20386;-75
2022/12/08 06:47:38;;;;;;;5.93;5.35;;;;;;;3.15;100.00;100565.81;6082134;23;20036;-75
2022/12/08 06:50:06;;;;;;;6.13;5.55;;;;;;;3.04;100.00;100555.69;6069672;23;20115;-75
2022/12/08 06:52:33;;;;;;;4.88;4.35;;;;;;;2.86;100.00;100519.81;6086188;23;20261;-74
2022/12/08 06:55:07;;;;;;;5.10;4.70;;;;;;;2.88;100.00;100534.44;6068192;23;20078;-76
2022/12/08 06:57:33;;;;;;;4.28;3.90;;;;;;;3.16;100.00;100570.09;6083908;23;20521;-73
2022/12/08 07:00:00;;;;;;;5.75;5.20;;;;;;;3.03;100.00;100543.63;6073362;23;20014;-74
2022/12/08 07:02:26;;;;;;;5.55;5.13;;;;;;;3.07;100.00;100544.41;6058543;23;20102;-75
2022/12/08 07:04:53;;;;;;;5.10;4.65;;;;;;;3.16;100.00;100568.34;6069694;23;20021;-75
2022/12/08 07:07:19;;;;;;;4.53;4.20;;;;;;;3.09;100.00;100556.44;6088030;23;20039;-77
2022/12/08 07:09:46;;;;;;;6.97;6.47;;;;;;;2.97;100.00;100542.00;6065308;23;20692;-75
2022/12/08 07:12:12;;;;;;;5.60;5.15;;;;;;;2.52;100.00;100476.53;6084531;23;20026;-74
2022/12/08 07:14:39;;;;;;;15.55;5.07;;;;;;;3.16;100.00;100576.13;6062050;23;20022;-74
2022/12/08 07:17:05;;;;;;;5.18;4.78;;;;;;;3.14;100.00;100580.50;6085954;23;20033;-75
2022/12/08 07:19:32;;;;;;;5.72;5.22;;;;;;;3.05;100.00;100567.75;6074026;23;20084;-76
2022/12/08 07:21:58;;;;;;;8.90;7.47;;;;;;;3.03;100.00;100561.75;6082238;23;20048;-75
2022/12/08 07:24:24;;;;;;;6.20;4.47;;;;;;;2.61;100.00;100494.47;6038322;23;20030;-76
2022/12/08 07:26:51;;;;;;;5.78;5.28;;;;;;;2.51;100.00;100486.06;6086252;23;20036;-76
2022/12/08 07:29:17;;;;;;;4.80;4.40;;;;;;;2.92;100.00;100548.19;6071109;23;20041;-75
2022/12/08 07:31:51;;;;;;;6.32;5.80;;;;;;;3.12;100.00;100589.22;6088397;23;20033;-75
2022/12/08 07:34:18;;;;;;;4.57;4.25;;;;;;;3.03;100.00;100563.47;6048689;23;20425;-75
2022/12/08 07:36:44;;;;;;;4.75;4.45;;;;;;;2.90;100.00;100537.00;6088263;23;20037;-75
2022/12/08 07:39:10;;;;;;;4.72;4.45;;;;;;;2.55;100.00;100495.47;6042312;23;20272;-73
2022/12/08 07:41:37;;;;;;;5.25;4.90;;;;;;;2.99;100.00;100555.78;6085577;23;20022;-74
2022/12/08 07:44:03;;;;;;;8.15;5.07;;;;;;;2.88;100.00;100541.38;6082775;23;20104;-73
2022/12/08 07:46:30;;;;;;;6.28;5.85;;;;;;;2.36;100.00;100458.75;6084773;23;20102;-74
2022/12/08 07:48:57;;;;;;;5.57;4.50;;;;;;;3.09;100.00;100574.59;6065411;23;20376;-73
2022/12/08 07:51:24;;;;;;;5.30;4.80;;;;;;;2.92;100.00;100555.97;6084462;23;20026;-75
2022/12/08 07:53:51;;;;;;;5.03;4.68;;;;;;;3.00;100.00;100573.03;6073269;23;20044;-74
2022/12/08 07:56:21;;;;;;;7.38;4.43;;;;;;;2.83;100.00;100538.00;6085373;23;20030;-75
2022/12/08 07:58:47;;;;;;;5.97;5.57;;;;;;;3.03;100.00;100579.03;6060397;23;20029;-74
2022/12/08 08:01:20;;;;;;;4.47;4.18;;;;;;;2.52;100.00;100503.28;6055002;23;20034;-74
2022/12/08 08:03:46;;;;;;;4.97;4.47;;;;;;;2.26;100.00;100451.22;6069716;23;20022;-75
2022/12/08 08:06:13;;;;;;;5.55;4.78;;;;;;;2.68;100.00;100518.50;6081088;23;20010;-74
2022/12/08 08:08:39;;;;;;;4.13;3.88;;;;;;;3.00;100.00;100559.22;6053020;23;20030;-75
2022/12/08 08:11:07;;;;;;;4.28;4.00;;;;;;;3.03;100.00;100569.53;6017777;23;20026;-74
2022/12/08 08:13:44;;;;;;;5.70;5.30;;;;;;;2.97;100.00;100557.56;6073298;23;20030;-75
2022/12/08 08:16:12;;;;;;;4.85;4.55;;;;;;;1.96;100.00;100391.47;6082417;23;20604;-74
2022/12/08 08:18:39;;;;;;;4.55;4.15;;;;;;;2.73;100.00;100514.94;6069423;23;20093;-73
2022/12/08 08:21:06;;;;;;;4.72;4.32;;;;;;;2.55;100.00;100484.25;6052462;23;20034;-73
2022/12/08 08:23:52;;;;;;;4.05;3.85;;;;;;;3.14;100.00;100566.69;6070809;23;20026;-73
2022/12/08 08:26:19;;;;;;;10.80;5.65;;;;;;;2.85;100.00;100544.91;6043160;23;20463;-73
2022/12/08 08:28:47;;;;;;;11.27;6.50;;;;;;;3.06;100.00;100568.59;6057142;23;20634;-74
2022/12/08 08:31:13;;;;;;;4.07;3.88;;;;;;;3.15;100.00;100569.25;6048353;23;20087;-76
2022/12/08 08:33:40;;;;;;;9.70;4.93;;;;;;;2.50;100.00;100473.97;6077761;23;20030;-74
2022/12/08 08:36:07;;;;;;;4.13;3.83;;;;;;;2.91;100.00;100530.94;6075531;23;20022;-74
2022/12/08 08:38:38;;;;;;;7.28;5.10;;;;;;;2.90;100.00;100511.94;6084399;23;20127;-73
2022/12/08 08:41:09;;;;;;;4.25;3.95;;;;;;;2.96;100.00;100521.31;6061728;23;20026;-73
2022/12/08 08:43:36;;;;;;;5.22;4.75;;;;;;;3.26;100.00;100558.59;6056975;23;20030;-74
2022/12/08 08:46:05;;;;;;;5.22;4.65;;;;;;;3.32;100.00;100575.78;6072808;23;20025;-74
2022/12/08 08:48:32;;;;;;;5.00;4.50;;;;;;;2.75;100.00;100474.28;6061959;23;20437;-74
2022/12/08 08:51:06;;;;;;;5.43;4.55;;;;;;;1.85;100.00;100318.41;6045730;23;20035;-75
2022/12/08 08:53:32;;;;;;;5.90;5.47;;;;;;;3.06;100.00;100519.34;6038918;23;20042;-75
2022/12/08 08:55:59;;;;;;;4.57;4.28;;;;;;;3.33;100.00;100569.72;6085270;23;20032;-73
2022/12/08 08:58:28;;;;;;;4.82;4.53;;;;;;;3.17;100.00;100551.06;6080633;23;20021;-74
2022/12/08 09:00:55;;;;;;;6.10;5.50;;;;;;;2.93;100.00;100496.31;6036314;23;20514;-74
2022/12/08 09:03:24;;;;;;;5.85;5.38;;;;;;;2.68;100.00;100464.94;6073356;23;20006;-73
2022/12/08 09:05:50;;;;;;;5.88;5.25;;;;;;;2.93;100.00;100504.09;6088192;23;20436;-75
2022/12/08 09:08:17;;;;;;;4.53;4.25;;;;;;;3.14;100.00;100528.63;6075043;23;20030;-75
2022/12/08 09:10:44;;;;;;;6.35;4.82;;;;;;;2.79;100.00;100478.50;6065199;23;20018;-74
2022/12/08 09:13:10;;;;;;;5.90;5.47;;;;;;;2.68;100.00;100454.56;6047701;23;20084;-76
2022/12/08 09:15:36;;;;;;;4.97;4.68;;;;;;;3.18;100.00;100529.41;6087304;23;20103;-75
2022/12/08 09:18:05;;;;;;;4.00;3.80;;;;;;;3.42;100.00;100559.09;6064684;23;20030;-74
2022/12/08 09:20:33;;;;;;;4.60;4.30;;;;;;;3.37;100.00;100573.94;6059011;23;20034;-73
2022/12/08 09:23:00;;;;;;;4.57;4.28;;;;;;;2.64;100.00;100458.13;6067659;23;20378;-73
2022/12/08 09:25:27;;;;;;;4.65;4.35;;;;;;;3.18;100.00;100561.38;6087467;23;20022;-74
2022/12/08 09:27:53;;;;;;;6.00;5.30;;;;;;;2.21;100.00;100399.56;6073166;23;20022;-73
2022/12/08 09:30:20;;;;;;;4.43;4.13;;;;;;;3.24;100.00;100567.31;6083199;23;20085;-74
2022/12/08 09:32:46;;;;;;;4.47;3.85;;;;;;;2.73;100.00;100470.88;6044998;23;20492;-74
2022/12/08 09:35:13;;;;;;;5.07;4.78;;;;;;;3.19;100.00;100563.09;6084039;23;20119;-74
2022/12/08 09:37:39;;;;;;;4.85;4.45;;;;;;;2.74;100.00;100485.53;6062730;23;20479;-75
2022/12/08 09:40:07;;;;;;;4.55;4.35;;;;;;;3.35;100.00;100584.34;6030634;23;20034;-74
2022/12/08 09:42:48;;;;;;;3.80;3.60;;;;;;;3.36;100.00;100578.25;6086740;23;20018;-75
2022/12/08 09:45:16;;;;;;;3.75;3.53;;;;;;;3.30;100.00;100562.00;6079226;23;20025;-75
2022/12/08 09:48:06;;;;;;;4.22;3.80;;;;;;;3.39;100.00;100582.53;6042264;23;20280;-72
2022/12/08 09:50:45;;;;;;;4.40;4.15;;;;;;;3.13;100.00;100521.75;6055870;23;20085;-73
2022/12/08 09:53:16;;;;;;;3.80;3.60;;;;;;;3.58;100.00;100580.31;6069395;23;20523;-74
2022/12/08 09:55:50;;;;;;;4.25;4.00;;;;;;;3.47;100.00;100584.91;6077232;23;20567;-74
2022/12/08 09:58:44;;;;;;;4.03;3.50;;;;;;;3.54;100.00;100586.47;6068039;23;20319;-74
2022/12/08 10:01:11;;;;;;;6.93;5.13;;;;;;;3.49;100.00;100568.44;6055358;23;20452;-74
2022/12/08 10:03:37;;;;;;;7.25;5.22;;;;;;;3.48;100.00;100561.53;6082098;23;20026;-74
2022/12/08 10:06:14;;;;;;;3.75;3.55;;;;;;;3.54;100.00;100581.28;6073543;23;20022;-75
2022/12/08 10:08:57;;;;;;;4.22;3.97;;;;;;;2.86;100.00;100468.84;6064575;23;20030;-73
2022/12/08 10:11:36;;;;;;;3.28;3.13;;;;;;;3.10;100.00;100506.25;6071582;23;20033;-75
2022/12/08 10:14:20;;;;;;;4.68;4.30;;;;;;;3.34;100.00;100545.47;6059834;23;20026;-73
2022/12/08 10:16:59;;;;;;;4.47;4.20;;;;;;;3.37;100.00;100519.47;6083634;23;20090;-74
2022/12/08 10:19:27;;;;;;;4.20;3.90;;;;;;;3.85;100.00;100581.34;6038907;23;20017;-74
2022/12/08 10:21:56;;;;;;;4.28;4.03;;;;;;;3.66;100.00;100562.81;6075037;23;20512;-73
2022/12/08 10:24:39;;;;;;;4.43;4.13;;;;;;;3.81;100.00;100582.34;6050406;23;20046;-73
2022/12/08 10:27:10;;;;;;;;;;;;;;;3.79;100.00;100584.13;6079922;23;20480;-73
2022/12/08 10:29:40;;;;;;;4.35;4.07;;;;;;;3.89;100.00;100575.19;6088105;23;19906;-73
2022/12/08 10:32:21;;;;;;;4.35;3.97;;;;;;;3.62;100.00;100536.97;6026268;23;20520;-76
2022/12/08 10:35:01;;;;;;;4.50;4.20;;;;;;;3.78;100.00;100591.03;6086977;23;20029;-77
2022/12/08 10:37:28;;;;;;;5.15;3.88;;;;;;;3.19;100.00;100487.91;6063655;23;20022;-76
2022/12/08 10:40:12;;;;;;;5.50;5.00;;;;;;;3.71;100.00;100584.31;6074915;23;20240;-76
2022/12/08 10:42:51;;;;;;;4.40;4.00;;;;;;;3.75;100.00;100575.56;6059855;23;20028;-77
2022/12/08 10:45:29;;;;;;;6.30;5.13;;;;;;;3.03;100.00;100499.53;6040943;23;20085;-75
2022/12/08 10:47:58;;;;;;;4.45;4.15;;;;;;;3.74;100.00;100583.38;6082927;23;20020;-75
2022/12/08 10:50:34;;;;;;;5.00;4.55;;;;;;;3.86;100.00;100577.00;6057760;23;20034;-74
2022/12/08 10:53:18;;;;;;;5.97;4.88;;;;;;;3.66;100.00;100529.06;6050439;23;20024;-76
2022/12/08 10:55:51;;;;;;;4.43;4.13;;;;;;;4.15;100.00;100576.22;6083738;23;20010;-75
2022/12/08 10:58:35;;;;;;;3.95;3.67;;;;;;;3.69;100.00;100492.66;6065905;23;20338;-75
2022/12/08 11:01:08;;;;;;;5.55;5.05;;;;;;;4.14;100.00;100559.78;6083599;23;20014;-76
2022/12/08 11:03:40;;;;;;;5.00;4.55;;;;;;;3.75;100.00;100495.09;6062303;23;20096;-75
2022/12/08 11:06:14;;;;;;;3.83;3.58;;;;;;;4.17;100.00;100558.88;6084760;23;20180;-77
2022/12/08 11:09:06;;;;;;;4.40;4.20;;;;;;;3.75;100.00;100502.03;6074800;23;20026;-77
2022/12/08 11:11:42;;;;;;;4.72;4.43;;;;;;;4.27;100.00;100562.91;6035182;23;20106;-76
2022/12/08 11:14:25;;;;;;;4.90;4.45;;;;;;;3.95;100.00;100497.13;6084791;23;20075;-76
2022/12/08 11:17:03;;;;;;;3.80;3.60;;;;;;;3.47;100.00;100418.88;6076025;23;20032;-75
2022/12/08 11:19:35;;;;;;;22.20;20.90;;;;;;;4.28;100.00;100533.41;5980487;23;20324;-77
2022/12/08 11:22:20;;;;;;;4.68;4.40;;;;;;;3.99;100.00;100509.13;6026428;23;20014;-76
2022/12/08 11:24:57;;;;;;;4.18;3.95;;;;;;;4.10;100.00;100513.19;6035730;23;20088;-76
2022/12/08 11:27:25;;;;;;;5.35;4.90;;;;;;;3.92;100.00;100494.63;6083372;23;20177;-76
2022/12/08 11:29:51;;;;;;;5.32;5.00;;;;;;;3.39;100.00;100390.56;6059156;23;20534;-75
2022/12/08 11:32:18;;;;;;;4.00;3.70;;;;;;;3.99;100.00;100500.50;6062095;23;20020;-77
2022/12/08 11:34:49;;;;;;;5.20;4.80;;;;;;;4.30;100.00;100542.03;6060881;23;20031;-76
2022/12/08 11:37:24;;;;;;;4.70;4.30;;;;;;;4.37;100.00;100548.75;6089186;23;20018;-76
2022/12/08 11:40:02;;;;;;;4.53;4.25;;;;;;;4.34;100.00;100541.03;6053296;23;20202;-76
2022/12/08 11:42:36;;;;;;;3.92;3.72;;;;;;;4.32;100.00;100532.44;6085199;23;20005;-75